sensor_id;sensor_type;location;lat;lon;timestamp;temperature;humidity
19214;DHT22;9741;51.020;5.304;2023-06-22T00:01:17;21.30;53.20
19214;DHT22;9741;51.020;5.304;2023-06-22T00:03:44;21.40;53.30
19214;DHT22;9741;51.020;5.304;2023-06-22T00:06:12;21.40;53.30
19214;DHT22;9741;51.020;5.304;2023-06-22T00:08:39;21.40;53.30
19214;DHT22;9741;51.020;5.304;2023-06-22T00:11:08;21.40;53.30
19214;DHT22;9741;51.020;5.304;2023-06-22T00:13:35;21.40;53.30
19214;DHT22;9741;51.020;5.304;2023-06-22T00:16:02;21.40;53.30
19214;DHT22;9741;51.020;5.304;2023-06-22T00:18:29;21.40;53.40
19214;DHT22;9741;51.020;5.304;2023-06-22T00:20:58;21.30;53.40
19214;DHT22;9741;51.020;5.304;2023-06-22T00:23:26;21.30;53.50
19214;DHT22;9741;51.020;5.304;2023-06-22T00:25:53;21.20;53.60
19214;DHT22;9741;51.020;5.304;2023-06-22T00:28:21;21.10;53.60
19214;DHT22;9741;51.020;5.304;2023-06-22T00:30:49;21.10;53.80
19214;DHT22;9741;51.020;5.304;2023-06-22T00:33:16;21.10;54.10
19214;DHT22;9741;51.020;5.304;2023-06-22T00:35:43;21.00;54.40
19214;DHT22;9741;51.020;5.304;2023-06-22T00:38:11;21.00;54.00
19214;DHT22;9741;51.020;5.304;2023-06-22T00:40:38;21.00;54.10
19214;DHT22;9741;51.020;5.304;2023-06-22T00:43:05;21.00;54.10
19214;DHT22;9741;51.020;5.304;2023-06-22T00:45:34;21.00;54.10
19214;DHT22;9741;51.020;5.304;2023-06-22T00:48:01;21.00;54.00
19214;DHT22;9741;51.020;5.304;2023-06-22T00:50:30;21.10;54.00
19214;DHT22;9741;51.020;5.304;2023-06-22T00:53:01;21.10;53.90
19214;DHT22;9741;51.020;5.304;2023-06-22T00:55:34;21.20;53.80
19214;DHT22;9741;51.020;5.304;2023-06-22T00:58:03;21.20;53.60
19214;DHT22;9741;51.020;5.304;2023-06-22T01:00:35;21.20;53.60
19214;DHT22;9741;51.020;5.304;2023-06-22T01:03:02;21.20;53.60
19214;DHT22;9741;51.020;5.304;2023-06-22T01:05:32;21.20;53.60
19214;DHT22;9741;51.020;5.304;2023-06-22T01:08:06;21.20;53.60
19214;DHT22;9741;51.020;5.304;2023-06-22T01:10:40;21.20;53.60
19214;DHT22;9741;51.020;5.304;2023-06-22T01:13:16;21.20;53.60
19214;DHT22;9741;51.020;5.304;2023-06-22T01:15:48;21.20;53.50
19214;DHT22;9741;51.020;5.304;2023-06-22T01:18:17;21.20;53.40
19214;DHT22;9741;51.020;5.304;2023-06-22T01:20:46;21.10;53.20
19214;DHT22;9741;51.020;5.304;2023-06-22T01:23:21;21.10;53.10
19214;DHT22;9741;51.020;5.304;2023-06-22T01:26:02;21.10;53.00
19214;DHT22;9741;51.020;5.304;2023-06-22T01:28:46;21.10;53.00
19214;DHT22;9741;51.020;5.304;2023-06-22T01:31:16;21.10;53.00
19214;DHT22;9741;51.020;5.304;2023-06-22T01:33:45;21.10;53.00
19214;DHT22;9741;51.020;5.304;2023-06-22T01:36:17;21.00;53.00
19214;DHT22;9741;51.020;5.304;2023-06-22T01:38:47;21.00;53.20
19214;DHT22;9741;51.020;5.304;2023-06-22T01:41:16;21.00;53.30
19214;DHT22;9741;51.020;5.304;2023-06-22T01:43:45;20.90;53.30
19214;DHT22;9741;51.020;5.304;2023-06-22T01:46:12;21.00;53.40
19214;DHT22;9741;51.020;5.304;2023-06-22T01:48:40;21.00;53.40
19214;DHT22;9741;51.020;5.304;2023-06-22T01:51:08;21.00;53.50
19214;DHT22;9741;51.020;5.304;2023-06-22T01:53:38;21.00;53.50
19214;DHT22;9741;51.020;5.304;2023-06-22T01:56:05;21.00;53.40
19214;DHT22;9741;51.020;5.304;2023-06-22T01:58:38;21.00;53.40
19214;DHT22;9741;51.020;5.304;2023-06-22T02:01:12;21.10;53.60
19214;DHT22;9741;51.020;5.304;2023-06-22T02:03:43;21.10;53.60
19214;DHT22;9741;51.020;5.304;2023-06-22T02:06:16;21.10;53.60
19214;DHT22;9741;51.020;5.304;2023-06-22T02:08:48;21.10;53.60
19214;DHT22;9741;51.020;5.304;2023-06-22T02:11:18;21.20;53.60
19214;DHT22;9741;51.020;5.304;2023-06-22T02:13:48;21.20;53.60
19214;DHT22;9741;51.020;5.304;2023-06-22T02:16:17;21.20;53.60
19214;DHT22;9741;51.020;5.304;2023-06-22T02:18:46;21.20;53.60
19214;DHT22;9741;51.020;5.304;2023-06-22T02:21:16;21.20;53.60
19214;DHT22;9741;51.020;5.304;2023-06-22T02:23:44;21.30;53.70
19214;DHT22;9741;51.020;5.304;2023-06-22T02:26:12;21.30;53.70
19214;DHT22;9741;51.020;5.304;2023-06-22T02:28:42;21.30;53.70
19214;DHT22;9741;51.020;5.304;2023-06-22T02:31:09;21.40;53.80
19214;DHT22;9741;51.020;5.304;2023-06-22T02:33:39;21.40;53.90
19214;DHT22;9741;51.020;5.304;2023-06-22T02:36:07;21.40;53.90
19214;DHT22;9741;51.020;5.304;2023-06-22T02:38:34;21.40;53.90
19214;DHT22;9741;51.020;5.304;2023-06-22T02:41:02;21.40;53.90
19214;DHT22;9741;51.020;5.304;2023-06-22T02:43:32;21.40;54.00
19214;DHT22;9741;51.020;5.304;2023-06-22T02:45:59;21.40;54.10
19214;DHT22;9741;51.020;5.304;2023-06-22T02:48:26;21.40;54.20
19214;DHT22;9741;51.020;5.304;2023-06-22T02:50:54;21.40;54.30
19214;DHT22;9741;51.020;5.304;2023-06-22T02:53:24;21.40;54.30
19214;DHT22;9741;51.020;5.304;2023-06-22T02:55:55;21.40;54.30
19214;DHT22;9741;51.020;5.304;2023-06-22T02:58:22;21.30;54.30
19214;DHT22;9741;51.020;5.304;2023-06-22T03:00:50;21.30;54.50
19214;DHT22;9741;51.020;5.304;2023-06-22T03:03:18;21.20;54.60
19214;DHT22;9741;51.020;5.304;2023-06-22T03:05:46;21.20;54.70
19214;DHT22;9741;51.020;5.304;2023-06-22T03:08:14;21.10;54.70
19214;DHT22;9741;51.020;5.304;2023-06-22T03:10:41;21.10;54.90
19214;DHT22;9741;51.020;5.304;2023-06-22T03:13:08;21.10;55.00
19214;DHT22;9741;51.020;5.304;2023-06-22T03:15:35;21.00;55.60
19214;DHT22;9741;51.020;5.304;2023-06-22T03:18:03;21.00;55.20
19214;DHT22;9741;51.020;5.304;2023-06-22T03:20:30;20.90;55.20
19214;DHT22;9741;51.020;5.304;2023-06-22T03:22:59;20.90;55.40
19214;DHT22;9741;51.020;5.304;2023-06-22T03:25:28;20.90;55.50
19214;DHT22;9741;51.020;5.304;2023-06-22T03:27:55;20.80;55.60
19214;DHT22;9741;51.020;5.304;2023-06-22T03:30:22;20.80;55.60
19214;DHT22;9741;51.020;5.304;2023-06-22T03:32:49;20.80;55.70
19214;DHT22;9741;51.020;5.304;2023-06-22T03:35:16;20.80;55.80
19214;DHT22;9741;51.020;5.304;2023-06-22T03:37:43;20.90;56.00
19214;DHT22;9741;51.020;5.304;2023-06-22T03:40:12;20.80;56.00
19214;DHT22;9741;51.020;5.304;2023-06-22T03:42:41;20.80;56.00
19214;DHT22;9741;51.020;5.304;2023-06-22T03:45:09;20.80;56.10
19214;DHT22;9741;51.020;5.304;2023-06-22T03:47:38;20.80;56.20
19214;DHT22;9741;51.020;5.304;2023-06-22T03:50:06;20.80;56.20
19214;DHT22;9741;51.020;5.304;2023-06-22T03:52:33;20.90;56.40
19214;DHT22;9741;51.020;5.304;2023-06-22T03:55:00;20.90;56.40
19214;DHT22;9741;51.020;5.304;2023-06-22T03:57:27;20.90;56.40
19214;DHT22;9741;51.020;5.304;2023-06-22T03:59:56;20.90;56.50
19214;DHT22;9741;51.020;5.304;2023-06-22T04:02:24;20.90;56.50
19214;DHT22;9741;51.020;5.304;2023-06-22T04:04:51;20.90;56.60
19214;DHT22;9741;51.020;5.304;2023-06-22T04:07:18;21.00;56.70
19214;DHT22;9741;51.020;5.304;2023-06-22T04:09:45;21.00;56.70
19214;DHT22;9741;51.020;5.304;2023-06-22T04:12:12;21.10;56.80
19214;DHT22;9741;51.020;5.304;2023-06-22T04:14:39;21.20;56.80
19214;DHT22;9741;51.020;5.304;2023-06-22T04:17:08;21.30;56.90
19214;DHT22;9741;51.020;5.304;2023-06-22T04:19:35;21.40;56.80
19214;DHT22;9741;51.020;5.304;2023-06-22T04:22:03;21.50;56.80
19214;DHT22;9741;51.020;5.304;2023-06-22T04:24:32;21.60;56.70
19214;DHT22;9741;51.020;5.304;2023-06-22T04:26:59;21.70;56.50
19214;DHT22;9741;51.020;5.304;2023-06-22T04:29:28;21.80;56.40
19214;DHT22;9741;51.020;5.304;2023-06-22T04:31:56;21.90;56.30
19214;DHT22;9741;51.020;5.304;2023-06-22T04:34:25;21.90;56.20
19214;DHT22;9741;51.020;5.304;2023-06-22T04:36:53;22.00;56.30
19214;DHT22;9741;51.020;5.304;2023-06-22T04:39:20;22.00;56.20
19214;DHT22;9741;51.020;5.304;2023-06-22T04:41:47;22.00;56.10
19214;DHT22;9741;51.020;5.304;2023-06-22T04:44:17;22.00;56.10
19214;DHT22;9741;51.020;5.304;2023-06-22T04:46:50;22.10;56.20
19214;DHT22;9741;51.020;5.304;2023-06-22T04:49:20;22.10;56.10
19214;DHT22;9741;51.020;5.304;2023-06-22T04:51:49;22.10;56.10
19214;DHT22;9741;51.020;5.304;2023-06-22T04:54:17;22.10;56.10
19214;DHT22;9741;51.020;5.304;2023-06-22T04:56:45;22.10;56.10
19214;DHT22;9741;51.020;5.304;2023-06-22T04:59:12;22.10;56.10
19214;DHT22;9741;51.020;5.304;2023-06-22T05:01:39;22.10;56.10
19214;DHT22;9741;51.020;5.304;2023-06-22T05:04:09;22.10;56.20
19214;DHT22;9741;51.020;5.304;2023-06-22T05:06:38;22.10;56.20
19214;DHT22;9741;51.020;5.304;2023-06-22T05:09:07;22.00;56.20
19214;DHT22;9741;51.020;5.304;2023-06-22T05:11:34;22.00;56.20
19214;DHT22;9741;51.020;5.304;2023-06-22T05:14:01;22.00;56.20
19214;DHT22;9741;51.020;5.304;2023-06-22T05:16:28;22.00;56.20
19214;DHT22;9741;51.020;5.304;2023-06-22T05:18:55;22.00;56.30
19214;DHT22;9741;51.020;5.304;2023-06-22T05:21:24;22.00;56.30
19214;DHT22;9741;51.020;5.304;2023-06-22T05:23:51;22.00;56.40
19214;DHT22;9741;51.020;5.304;2023-06-22T05:26:20;22.00;56.40
19214;DHT22;9741;51.020;5.304;2023-06-22T05:28:48;22.00;56.50
19214;DHT22;9741;51.020;5.304;2023-06-22T05:31:15;21.90;56.50
19214;DHT22;9741;51.020;5.304;2023-06-22T05:33:43;21.90;56.50
19214;DHT22;9741;51.020;5.304;2023-06-22T05:36:11;21.80;56.70
19214;DHT22;9741;51.020;5.304;2023-06-22T05:38:38;21.80;56.80
19214;DHT22;9741;51.020;5.304;2023-06-22T05:41:06;21.70;56.90
19214;DHT22;9741;51.020;5.304;2023-06-22T05:43:35;21.70;57.10
19214;DHT22;9741;51.020;5.304;2023-06-22T05:46:03;21.60;57.30
19214;DHT22;9741;51.020;5.304;2023-06-22T05:48:30;21.60;57.50
19214;DHT22;9741;51.020;5.304;2023-06-22T05:50:58;21.60;57.70
19214;DHT22;9741;51.020;5.304;2023-06-22T05:53:25;21.60;57.90
19214;DHT22;9741;51.020;5.304;2023-06-22T05:55:52;21.60;58.00
19214;DHT22;9741;51.020;5.304;2023-06-22T05:58:19;21.60;58.20
19214;DHT22;9741;51.020;5.304;2023-06-22T06:00:47;21.60;58.30
19214;DHT22;9741;51.020;5.304;2023-06-22T06:03:14;21.70;58.50
19214;DHT22;9741;51.020;5.304;2023-06-22T06:05:43;21.70;58.50
19214;DHT22;9741;51.020;5.304;2023-06-22T06:08:10;21.80;58.60
19214;DHT22;9741;51.020;5.304;2023-06-22T06:10:37;21.80;58.60
19214;DHT22;9741;51.020;5.304;2023-06-22T06:13:04;21.90;58.80
19214;DHT22;9741;51.020;5.304;2023-06-22T06:15:32;21.90;58.80
19214;DHT22;9741;51.020;5.304;2023-06-22T06:18:00;21.90;58.80
19214;DHT22;9741;51.020;5.304;2023-06-22T06:20:29;21.90;58.80
19214;DHT22;9741;51.020;5.304;2023-06-22T06:22:57;21.90;58.80
19214;DHT22;9741;51.020;5.304;2023-06-22T06:25:24;21.90;58.80
19214;DHT22;9741;51.020;5.304;2023-06-22T06:27:51;21.90;58.90
19214;DHT22;9741;51.020;5.304;2023-06-22T06:30:20;21.90;59.00
19214;DHT22;9741;51.020;5.304;2023-06-22T06:32:49;21.90;59.10
19214;DHT22;9741;51.020;5.304;2023-06-22T06:35:17;21.90;59.10
19214;DHT22;9741;51.020;5.304;2023-06-22T06:37:47;21.90;59.20
19214;DHT22;9741;51.020;5.304;2023-06-22T06:40:15;21.90;59.20
19214;DHT22;9741;51.020;5.304;2023-06-22T06:42:44;21.90;59.20
19214;DHT22;9741;51.020;5.304;2023-06-22T06:45:12;21.90;59.30
19214;DHT22;9741;51.020;5.304;2023-06-22T06:47:39;21.90;59.30
19214;DHT22;9741;51.020;5.304;2023-06-22T06:50:07;22.00;59.40
19214;DHT22;9741;51.020;5.304;2023-06-22T06:52:37;22.10;59.40
19214;DHT22;9741;51.020;5.304;2023-06-22T06:55:05;22.10;59.20
19214;DHT22;9741;51.020;5.304;2023-06-22T06:57:34;22.30;59.20
19214;DHT22;9741;51.020;5.304;2023-06-22T07:00:03;22.30;59.10
19214;DHT22;9741;51.020;5.304;2023-06-22T07:02:35;22.40;59.10
19214;DHT22;9741;51.020;5.304;2023-06-22T07:05:03;22.40;59.00
19214;DHT22;9741;51.020;5.304;2023-06-22T07:07:30;22.40;58.90
19214;DHT22;9741;51.020;5.304;2023-06-22T07:09:58;22.50;59.00
19214;DHT22;9741;51.020;5.304;2023-06-22T07:12:26;22.40;58.90
19214;DHT22;9741;51.020;5.304;2023-06-22T07:14:53;22.60;59.10
19214;DHT22;9741;51.020;5.304;2023-06-22T07:17:23;22.60;59.00
19214;DHT22;9741;51.020;5.304;2023-06-22T07:19:53;22.80;59.10
19214;DHT22;9741;51.020;5.304;2023-06-22T07:22:20;23.00;58.90
19214;DHT22;9741;51.020;5.304;2023-06-22T07:24:47;23.10;58.60
19214;DHT22;9741;51.020;5.304;2023-06-22T07:27:17;23.20;58.40
19214;DHT22;9741;51.020;5.304;2023-06-22T07:29:45;23.20;58.20
19214;DHT22;9741;51.020;5.304;2023-06-22T07:32:13;23.20;58.20
19214;DHT22;9741;51.020;5.304;2023-06-22T07:34:40;23.20;58.20
19214;DHT22;9741;51.020;5.304;2023-06-22T07:37:08;23.10;58.20
19214;DHT22;9741;51.020;5.304;2023-06-22T07:39:35;23.10;58.30
19214;DHT22;9741;51.020;5.304;2023-06-22T07:42:05;23.10;58.30
19214;DHT22;9741;51.020;5.304;2023-06-22T07:44:33;23.10;58.30
19214;DHT22;9741;51.020;5.304;2023-06-22T07:47:00;23.20;58.20
19214;DHT22;9741;51.020;5.304;2023-06-22T07:49:28;23.40;58.30
19214;DHT22;9741;51.020;5.304;2023-06-22T07:51:58;23.40;57.90
19214;DHT22;9741;51.020;5.304;2023-06-22T07:54:27;23.50;57.80
19214;DHT22;9741;51.020;5.304;2023-06-22T07:56:55;23.50;57.60
19214;DHT22;9741;51.020;5.304;2023-06-22T07:59:23;23.50;57.50
19214;DHT22;9741;51.020;5.304;2023-06-22T08:01:52;23.60;57.50
19214;DHT22;9741;51.020;5.304;2023-06-22T08:04:20;23.60;57.50
19214;DHT22;9741;51.020;5.304;2023-06-22T08:06:47;23.60;57.40
19214;DHT22;9741;51.020;5.304;2023-06-22T08:09:17;23.70;57.50
19214;DHT22;9741;51.020;5.304;2023-06-22T08:11:44;23.80;57.40
19214;DHT22;9741;51.020;5.304;2023-06-22T08:14:13;24.00;57.30
19214;DHT22;9741;51.020;5.304;2023-06-22T08:16:42;24.20;57.20
19214;DHT22;9741;51.020;5.304;2023-06-22T08:19:11;24.40;57.00
19214;DHT22;9741;51.020;5.304;2023-06-22T08:21:42;24.60;56.90
19214;DHT22;9741;51.020;5.304;2023-06-22T08:24:09;24.80;56.70
19214;DHT22;9741;51.020;5.304;2023-06-22T08:26:39;24.90;56.50
19214;DHT22;9741;51.020;5.304;2023-06-22T08:29:10;25.10;56.40
19214;DHT22;9741;51.020;5.304;2023-06-22T08:31:40;25.30;56.00
19214;DHT22;9741;51.020;5.304;2023-06-22T08:34:13;25.50;55.70
19214;DHT22;9741;51.020;5.304;2023-06-22T08:36:52;25.60;55.50
19214;DHT22;9741;51.020;5.304;2023-06-22T08:39:19;25.60;55.10
19214;DHT22;9741;51.020;5.304;2023-06-22T08:41:50;25.50;54.80
19214;DHT22;9741;51.020;5.304;2023-06-22T08:44:20;25.40;54.80
19214;DHT22;9741;51.020;5.304;2023-06-22T08:46:48;25.40;54.90
19214;DHT22;9741;51.020;5.304;2023-06-22T08:49:17;25.40;54.80
19214;DHT22;9741;51.020;5.304;2023-06-22T08:51:44;25.30;54.80
19214;DHT22;9741;51.020;5.304;2023-06-22T08:54:13;25.40;54.70
19214;DHT22;9741;51.020;5.304;2023-06-22T08:56:41;25.40;54.70
19214;DHT22;9741;51.020;5.304;2023-06-22T08:59:09;25.40;54.60
19214;DHT22;9741;51.020;5.304;2023-06-22T09:01:42;25.40;54.40
19214;DHT22;9741;51.020;5.304;2023-06-22T09:04:14;25.50;54.40
19214;DHT22;9741;51.020;5.304;2023-06-22T09:06:46;25.50;54.20
19214;DHT22;9741;51.020;5.304;2023-06-22T09:09:15;25.60;54.10
19214;DHT22;9741;51.020;5.304;2023-06-22T09:11:46;25.60;54.00
19214;DHT22;9741;51.020;5.304;2023-06-22T09:14:14;25.70;54.00
19214;DHT22;9741;51.020;5.304;2023-06-22T09:16:41;25.80;53.90
19214;DHT22;9741;51.020;5.304;2023-06-22T09:19:11;25.70;53.80
19214;DHT22;9741;51.020;5.304;2023-06-22T09:21:46;25.70;53.70
19214;DHT22;9741;51.020;5.304;2023-06-22T09:24:15;25.70;53.80
19214;DHT22;9741;51.020;5.304;2023-06-22T09:26:43;25.60;53.70
19214;DHT22;9741;51.020;5.304;2023-06-22T09:29:11;25.70;53.90
19214;DHT22;9741;51.020;5.304;2023-06-22T09:31:39;25.70;53.90
19214;DHT22;9741;51.020;5.304;2023-06-22T09:34:10;25.70;53.70
19214;DHT22;9741;51.020;5.304;2023-06-22T09:36:37;25.70;53.60
19214;DHT22;9741;51.020;5.304;2023-06-22T09:39:10;25.70;53.60
19214;DHT22;9741;51.020;5.304;2023-06-22T09:41:38;25.60;53.40
19214;DHT22;9741;51.020;5.304;2023-06-22T09:44:10;25.50;53.30
19214;DHT22;9741;51.020;5.304;2023-06-22T09:46:45;25.50;53.30
19214;DHT22;9741;51.020;5.304;2023-06-22T09:49:15;25.50;53.30
19214;DHT22;9741;51.020;5.304;2023-06-22T09:51:42;25.40;53.20
19214;DHT22;9741;51.020;5.304;2023-06-22T09:54:11;25.40;53.30
19214;DHT22;9741;51.020;5.304;2023-06-22T09:56:38;25.50;53.40
19214;DHT22;9741;51.020;5.304;2023-06-22T09:59:06;25.50;53.30
19214;DHT22;9741;51.020;5.304;2023-06-22T10:01:33;25.60;53.20
19214;DHT22;9741;51.020;5.304;2023-06-22T10:04:01;25.50;53.10
19214;DHT22;9741;51.020;5.304;2023-06-22T10:06:31;25.50;53.10
19214;DHT22;9741;51.020;5.304;2023-06-22T10:08:58;25.60;53.30
19214;DHT22;9741;51.020;5.304;2023-06-22T10:11:26;25.70;53.60
19214;DHT22;9741;51.020;5.304;2023-06-22T10:13:56;25.90;53.80
19214;DHT22;9741;51.020;5.304;2023-06-22T10:16:29;26.00;54.00
19214;DHT22;9741;51.020;5.304;2023-06-22T10:18:57;26.10;53.90
19214;DHT22;9741;51.020;5.304;2023-06-22T10:21:24;26.10;54.50
19214;DHT22;9741;51.020;5.304;2023-06-22T10:23:52;26.30;54.10
19214;DHT22;9741;51.020;5.304;2023-06-22T10:26:19;26.30;54.00
19214;DHT22;9741;51.020;5.304;2023-06-22T10:28:49;26.40;54.00
19214;DHT22;9741;51.020;5.304;2023-06-22T10:31:16;26.30;53.70
19214;DHT22;9741;51.020;5.304;2023-06-22T10:33:43;26.10;53.70
19214;DHT22;9741;51.020;5.304;2023-06-22T10:36:11;25.90;54.00
19214;DHT22;9741;51.020;5.304;2023-06-22T10:38:38;25.70;54.50
19214;DHT22;9741;51.020;5.304;2023-06-22T10:41:05;25.40;54.90
19214;DHT22;9741;51.020;5.304;2023-06-22T10:43:32;25.20;55.40
19214;DHT22;9741;51.020;5.304;2023-06-22T10:46:01;24.80;56.00
19214;DHT22;9741;51.020;5.304;2023-06-22T10:48:28;24.50;56.60
19214;DHT22;9741;51.020;5.304;2023-06-22T10:50:55;24.20;57.00
19214;DHT22;9741;51.020;5.304;2023-06-22T10:53:22;23.90;57.50
19214;DHT22;9741;51.020;5.304;2023-06-22T10:55:49;23.70;57.90
19214;DHT22;9741;51.020;5.304;2023-06-22T10:58:18;23.40;58.20
19214;DHT22;9741;51.020;5.304;2023-06-22T11:00:46;23.10;58.80
19214;DHT22;9741;51.020;5.304;2023-06-22T11:03:15;22.80;59.60
19214;DHT22;9741;51.020;5.304;2023-06-22T11:05:42;22.70;60.40
19214;DHT22;9741;51.020;5.304;2023-06-22T11:08:09;22.60;61.10
19214;DHT22;9741;51.020;5.304;2023-06-22T11:10:36;22.60;61.90
19214;DHT22;9741;51.020;5.304;2023-06-22T11:13:04;22.70;62.60
19214;DHT22;9741;51.020;5.304;2023-06-22T11:15:35;22.90;63.20
19214;DHT22;9741;51.020;5.304;2023-06-22T11:18:02;23.00;63.70
19214;DHT22;9741;51.020;5.304;2023-06-22T11:20:32;23.20;64.10
19214;DHT22;9741;51.020;5.304;2023-06-22T11:23:04;23.30;64.30
19214;DHT22;9741;51.020;5.304;2023-06-22T11:25:34;23.30;64.40
19214;DHT22;9741;51.020;5.304;2023-06-22T11:28:04;23.40;64.70
19214;DHT22;9741;51.020;5.304;2023-06-22T11:30:31;23.60;65.10
19214;DHT22;9741;51.020;5.304;2023-06-22T11:32:59;23.70;65.20
19214;DHT22;9741;51.020;5.304;2023-06-22T11:35:26;23.80;65.50
19214;DHT22;9741;51.020;5.304;2023-06-22T11:37:55;23.80;65.60
19214;DHT22;9741;51.020;5.304;2023-06-22T11:40:23;24.00;66.40
19214;DHT22;9741;51.020;5.304;2023-06-22T11:42:51;24.10;66.00
19214;DHT22;9741;51.020;5.304;2023-06-22T11:45:18;24.20;66.10
19214;DHT22;9741;51.020;5.304;2023-06-22T11:47:46;24.40;66.40
19214;DHT22;9741;51.020;5.304;2023-06-22T11:50:13;24.70;66.40
19214;DHT22;9741;51.020;5.304;2023-06-22T11:52:40;24.90;66.30
19214;DHT22;9741;51.020;5.304;2023-06-22T11:55:09;25.00;65.90
19214;DHT22;9741;51.020;5.304;2023-06-22T11:57:38;25.10;65.60
19214;DHT22;9741;51.020;5.304;2023-06-22T12:00:06;25.00;65.50
19214;DHT22;9741;51.020;5.304;2023-06-22T12:02:42;24.90;65.50
19214;DHT22;9741;51.020;5.304;2023-06-22T12:05:11;24.80;65.50
19214;DHT22;9741;51.020;5.304;2023-06-22T12:07:39;24.70;65.50
19214;DHT22;9741;51.020;5.304;2023-06-22T12:10:07;24.50;65.50
19214;DHT22;9741;51.020;5.304;2023-06-22T12:12:35;24.30;65.60
19214;DHT22;9741;51.020;5.304;2023-06-22T12:15:03;24.20;65.70
19214;DHT22;9741;51.020;5.304;2023-06-22T12:17:31;23.90;65.70
19214;DHT22;9741;51.020;5.304;2023-06-22T12:19:59;23.70;65.90
19214;DHT22;9741;51.020;5.304;2023-06-22T12:22:26;23.40;65.90
19214;DHT22;9741;51.020;5.304;2023-06-22T12:24:56;23.20;66.20
19214;DHT22;9741;51.020;5.304;2023-06-22T12:27:23;22.90;66.40
19214;DHT22;9741;51.020;5.304;2023-06-22T12:29:51;22.60;66.60
19214;DHT22;9741;51.020;5.304;2023-06-22T12:32:18;22.40;67.00
19214;DHT22;9741;51.020;5.304;2023-06-22T12:34:46;22.30;67.60
19214;DHT22;9741;51.020;5.304;2023-06-22T12:37:13;22.20;68.00
19214;DHT22;9741;51.020;5.304;2023-06-22T12:39:41;22.10;68.10
19214;DHT22;9741;51.020;5.304;2023-06-22T12:42:08;22.00;68.40
19214;DHT22;9741;51.020;5.304;2023-06-22T12:44:38;21.90;68.50
19214;DHT22;9741;51.020;5.304;2023-06-22T12:47:07;21.70;68.60
19214;DHT22;9741;51.020;5.304;2023-06-22T12:49:34;21.60;69.00
19214;DHT22;9741;51.020;5.304;2023-06-22T12:52:01;21.50;69.30
19214;DHT22;9741;51.020;5.304;2023-06-22T12:54:28;21.40;69.60
19214;DHT22;9741;51.020;5.304;2023-06-22T12:56:59;21.40;69.80
19214;DHT22;9741;51.020;5.304;2023-06-22T12:59:26;21.30;70.10
19214;DHT22;9741;51.020;5.304;2023-06-22T13:01:53;21.20;70.30
19214;DHT22;9741;51.020;5.304;2023-06-22T13:04:21;21.20;70.30
19214;DHT22;9741;51.020;5.304;2023-06-22T13:06:49;21.20;70.70
19214;DHT22;9741;51.020;5.304;2023-06-22T13:09:17;21.10;70.70
19214;DHT22;9741;51.020;5.304;2023-06-22T13:11:45;21.00;70.90
19214;DHT22;9741;51.020;5.304;2023-06-22T13:14:13;20.90;71.10
19214;DHT22;9741;51.020;5.304;2023-06-22T13:16:45;20.80;71.40
19214;DHT22;9741;51.020;5.304;2023-06-22T13:19:13;20.70;71.60
19214;DHT22;9741;51.020;5.304;2023-06-22T13:21:48;20.80;72.00
19214;DHT22;9741;51.020;5.304;2023-06-22T13:24:23;20.70;72.20
19214;DHT22;9741;51.020;5.304;2023-06-22T13:26:52;20.60;72.20
19214;DHT22;9741;51.020;5.304;2023-06-22T13:29:20;20.60;72.40
19214;DHT22;9741;51.020;5.304;2023-06-22T13:31:48;20.50;72.70
19214;DHT22;9741;51.020;5.304;2023-06-22T13:34:17;20.40;73.00
19214;DHT22;9741;51.020;5.304;2023-06-22T13:36:48;20.40;73.30
19214;DHT22;9741;51.020;5.304;2023-06-22T13:39:16;20.30;73.60
19214;DHT22;9741;51.020;5.304;2023-06-22T13:41:45;20.20;73.80
19214;DHT22;9741;51.020;5.304;2023-06-22T13:44:14;20.20;74.20
19214;DHT22;9741;51.020;5.304;2023-06-22T13:46:41;20.10;74.40
19214;DHT22;9741;51.020;5.304;2023-06-22T13:49:09;20.10;74.60
19214;DHT22;9741;51.020;5.304;2023-06-22T13:51:37;20.00;74.80
19214;DHT22;9741;51.020;5.304;2023-06-22T13:54:06;20.00;75.10
19214;DHT22;9741;51.020;5.304;2023-06-22T13:56:34;19.90;75.30
19214;DHT22;9741;51.020;5.304;2023-06-22T13:59:02;20.00;75.60
19214;DHT22;9741;51.020;5.304;2023-06-22T14:01:29;19.90;75.80
19214;DHT22;9741;51.020;5.304;2023-06-22T14:03:57;19.90;76.00
19214;DHT22;9741;51.020;5.304;2023-06-22T14:06:28;19.90;76.30
19214;DHT22;9741;51.020;5.304;2023-06-22T14:08:56;20.00;76.50
19214;DHT22;9741;51.020;5.304;2023-06-22T14:11:26;20.00;76.60
19214;DHT22;9741;51.020;5.304;2023-06-22T14:13:58;19.90;76.60
19214;DHT22;9741;51.020;5.304;2023-06-22T14:16:26;19.90;76.70
19214;DHT22;9741;51.020;5.304;2023-06-22T14:18:54;19.90;76.80
19214;DHT22;9741;51.020;5.304;2023-06-22T14:21:21;19.90;76.90
19214;DHT22;9741;51.020;5.304;2023-06-22T14:23:49;19.80;76.70
19214;DHT22;9741;51.020;5.304;2023-06-22T14:26:16;19.80;76.90
19214;DHT22;9741;51.020;5.304;2023-06-22T14:28:47;19.70;77.00
19214;DHT22;9741;51.020;5.304;2023-06-22T14:31:16;19.60;77.10
19214;DHT22;9741;51.020;5.304;2023-06-22T14:33:46;19.60;77.30
19214;DHT22;9741;51.020;5.304;2023-06-22T14:36:14;19.50;77.20
19214;DHT22;9741;51.020;5.304;2023-06-22T14:38:42;19.40;77.30
19214;DHT22;9741;51.020;5.304;2023-06-22T14:41:13;19.50;77.60
19214;DHT22;9741;51.020;5.304;2023-06-22T14:43:47;19.40;77.70
19214;DHT22;9741;51.020;5.304;2023-06-22T14:46:15;19.40;78.00
19214;DHT22;9741;51.020;5.304;2023-06-22T14:48:43;19.40;78.10
19214;DHT22;9741;51.020;5.304;2023-06-22T14:51:11;19.40;78.20
19214;DHT22;9741;51.020;5.304;2023-06-22T14:53:42;19.40;78.20
19214;DHT22;9741;51.020;5.304;2023-06-22T14:56:10;19.30;78.30
19214;DHT22;9741;51.020;5.304;2023-06-22T14:58:49;19.30;78.30
19214;DHT22;9741;51.020;5.304;2023-06-22T15:01:25;19.30;78.40
19214;DHT22;9741;51.020;5.304;2023-06-22T15:03:54;19.20;78.40
19214;DHT22;9741;51.020;5.304;2023-06-22T15:06:23;19.20;78.70
19214;DHT22;9741;51.020;5.304;2023-06-22T15:08:53;19.20;78.80
19214;DHT22;9741;51.020;5.304;2023-06-22T15:11:21;19.20;78.90
19214;DHT22;9741;51.020;5.304;2023-06-22T15:13:50;19.10;78.90
19214;DHT22;9741;51.020;5.304;2023-06-22T15:16:17;19.20;79.10
19214;DHT22;9741;51.020;5.304;2023-06-22T15:18:46;19.20;79.30
19214;DHT22;9741;51.020;5.304;2023-06-22T15:21:14;19.20;79.30
19214;DHT22;9741;51.020;5.304;2023-06-22T15:23:44;19.20;79.30
19214;DHT22;9741;51.020;5.304;2023-06-22T15:26:11;19.20;79.50
19214;DHT22;9741;51.020;5.304;2023-06-22T15:28:39;19.20;79.50
19214;DHT22;9741;51.020;5.304;2023-06-22T15:31:08;19.20;79.50
19214;DHT22;9741;51.020;5.304;2023-06-22T15:33:35;19.20;79.50
19214;DHT22;9741;51.020;5.304;2023-06-22T15:36:03;19.20;79.70
19214;DHT22;9741;51.020;5.304;2023-06-22T15:38:31;19.20;79.90
19214;DHT22;9741;51.020;5.304;2023-06-22T15:40:59;19.20;79.70
19214;DHT22;9741;51.020;5.304;2023-06-22T15:43:26;19.20;79.90
19214;DHT22;9741;51.020;5.304;2023-06-22T15:45:53;19.20;80.10
19214;DHT22;9741;51.020;5.304;2023-06-22T15:48:21;19.20;80.20
19214;DHT22;9741;51.020;5.304;2023-06-22T15:50:49;19.20;80.30
19214;DHT22;9741;51.020;5.304;2023-06-22T15:53:16;19.20;80.40